Leandra — V2EB4 — position and weather

sailwx.info

Track history (hours):
 
Tides and Currents Weather Stations Pressure Air Temp Water Temp Dewpoint Dewpoint Depression Visibility Wind Speed Wind Dir Waves Ship Positions

Leandra

Last reported at 2015-May-01 17:34 UTC. Time now 2015-May-05 00:13 UTC.
Position N 29°20' W 094°40'.

Length 146 m; draft 6.4 m.

Type: Cargo ship. MMSI: 305375000.

Date/timePositionNaut miles runAvg speedWind from/ knotsBaromVisibWave heightAir tempDewpointWater temp
2015-May-01 17:34N 29°20' W 094°40'1212.1
2015-May-01 16:33N 29°28' W 094°51'1312.6
2015-May-01 15:33N 29°39' W 094°58'9 9.4
2015-May-01 14:33N 29°46' W 095°05'5 5.5
2015-May-01 13:33N 29°45' W 095°11'5 4.4
2015-May-01 12:30N 29°44' W 095°16'0 0.0
2015-May-01 11:33N 29°44' W 095°16'0 0.0
2015-May-01 10:33N 29°44' W 095°16'0 0.0
2015-May-01 09:33N 29°44' W 095°16'0 0.0
2015-May-01 08:33N 29°44' W 095°16'0 0.0
2015-May-01 07:33N 29°44' W 095°16'0 0.0
2015-May-01 06:33N 29°44' W 095°16'0 0.0
2015-May-01 05:33N 29°44' W 095°16'0 0.0
2015-May-01 04:33N 29°44' W 095°16'0 0.0
2015-May-01 03:33N 29°44' W 095°16'0 0.0
2015-May-01 02:21N 29°44' W 095°16'0 0.0
2015-May-01 01:33N 29°44' W 095°16'0 0.0
2015-May-01 00:33N 29°44' W 095°16'0 0.0
2015-Apr-30 23:27N 29°44' W 095°16'0 0.0
2015-Apr-30 22:33N 29°44' W 095°16'0 0.0
2015-Apr-30 21:30N 29°44' W 095°16'0 0.0
2015-Apr-30 20:33N 29°44' W 095°16'0 0.0
2015-Apr-30 19:33N 29°44' W 095°16'0 0.0
2015-Apr-30 18:33N 29°44' W 095°16'0 0.0
2015-Apr-30 17:33N 29°44' W 095°16'0 0.0
2015-Apr-30 16:33N 29°44' W 095°16'0 0.0
2015-Apr-30 15:33N 29°44' W 095°16'0 0.0
2015-Apr-30 14:33N 29°44' W 095°16'0 0.0
2015-Apr-30 13:33N 29°44' W 095°16'0 0.0
2015-Apr-30 12:33N 29°44' W 095°16'0 0.0
2015-Apr-30 11:33N 29°44' W 095°16'0 0.0
2015-Apr-30 10:33N 29°44' W 095°16'0 0.0
2015-Apr-30 09:30N 29°44' W 095°16'0 0.0
2015-Apr-30 08:33N 29°44' W 095°16'0 0.0
2015-Apr-30 07:33N 29°44' W 095°16'0 0.0
2015-Apr-30 06:33N 29°44' W 095°16'0 0.0
2015-Apr-30 05:33N 29°44' W 095°16'0 0.0
2015-Apr-30 04:33N 29°44' W 095°16'0 0.0
2015-Apr-30 03:33N 29°44' W 095°16'0 0.0
2015-Apr-30 02:33N 29°44' W 095°16'0 0.0
2015-Apr-30 01:33N 29°44' W 095°16'0 0.0
2015-Apr-30 00:33N 29°44' W 095°16'0 0.0
2015-Apr-29 23:33N 29°44' W 095°16'0 0.0
2015-Apr-29 22:33N 29°44' W 095°16'0 0.0
2015-Apr-29 21:33N 29°44' W 095°16'0 0.0
2015-Apr-29 20:33N 29°44' W 095°16'0 0.0
2015-Apr-29 19:33N 29°44' W 095°16'0 0.0
2015-Apr-29 18:33N 29°44' W 095°16'0 0.0
2015-Apr-29 17:33N 29°44' W 095°16'0 0.0
2015-Apr-29 16:33N 29°44' W 095°16'0 0.0
2015-Apr-29 15:30N 29°44' W 095°16'0 0.0
2015-Apr-29 14:33N 29°44' W 095°16'0 0.0
2015-Apr-29 13:33N 29°44' W 095°16'0 0.0
2015-Apr-29 12:33N 29°44' W 095°16'0 0.0
2015-Apr-29 11:33N 29°44' W 095°16'0 0.0
2015-Apr-29 10:33N 29°44' W 095°16'0 0.0
2015-Apr-29 09:33N 29°44' W 095°16'0 0.0
2015-Apr-29 08:30N 29°44' W 095°16'0 0.0
2015-Apr-29 07:33N 29°44' W 095°16'0 0.0
2015-Apr-29 06:33N 29°44' W 095°16'0 0.0
2015-Apr-29 05:33N 29°44' W 095°16'0 0.0
2015-Apr-29 04:33N 29°44' W 095°16'0 0.0
2015-Apr-29 03:33N 29°44' W 095°16'0 0.0
2015-Apr-29 02:33N 29°44' W 095°16'0 0.0
2015-Apr-29 01:33N 29°44' W 095°16'0 0.0
2015-Apr-29 00:30N 29°44' W 095°16'0 0.2
2015-Apr-28 23:33N 29°43' W 095°16'6 6.2
2015-Apr-28 22:34N 29°44' W 095°09'7 7.1
2015-Apr-28 21:33N 29°42' W 095°01'1211.7
2015-Apr-28 20:34N 29°33' W 094°54'1312.7
2015-Apr-28 19:33N 29°21' W 094°47'11 0.4
2015-Apr-27 15:26N 29°19' W 094°35'0 0.0
2015-Apr-27 03:20N 29°19' W 094°35'0 0.0
2015-Apr-27 02:23N 29°19' W 094°35'0 0.0
2015-Apr-26 17:23N 29°19' W 094°35'0 0.0
2015-Apr-26 15:08N 29°19' W 094°35'0 0.0
2015-Apr-26 14:23N 29°19' W 094°35'0 0.0
2015-Apr-26 13:32N 29°19' W 094°34'0 0.0
2015-Apr-26 10:17N 29°19' W 094°34'0 0.0
2015-Apr-26 09:23N 29°19' W 094°34'0 0.0
2015-Apr-26 08:29N 29°19' W 094°34'0 0.0
2015-Apr-25 10:20N 29°19' W 094°34'0 0.0
2015-Apr-25 09:32N 29°19' W 094°34'0 0.0
2015-Apr-24 06:33N 29°19' W 094°34'0 0.0
2015-Apr-24 05:33N 29°19' W 094°35'0 0.0
2015-Apr-24 03:33N 29°19' W 094°35'0 0.0
2015-Apr-24 02:15N 29°19' W 094°34'0 0.0
2015-Apr-23 13:30N 29°19' W 094°35'8 0.5
2015-Apr-22 23:20N 29°21' W 094°43'5 0.5
2015-Apr-22 13:19N 29°18' W 094°48'  
Track history (hours):
 
Tides and Currents Weather Stations Pressure Air Temp Water Temp Dewpoint Dewpoint Depression Visibility Wind Speed Wind Dir Waves Ship Positions

Leandra

Last reported at 2015-May-01 17:34 UTC. Time now 2015-May-05 00:13 UTC.
Position N 29°20' W 094°40'.

Length 146 m; draft 6.4 m.

Type: Cargo ship. MMSI: 305375000.

Date/timePositionNaut miles runAvg speedWind from/ knotsBaromVisibWave heightAir tempDewpointWater temp
2015-May-01 17:34N 29°20' W 094°40'1212.1
2015-May-01 16:33N 29°28' W 094°51'1312.6
2015-May-01 15:33N 29°39' W 094°58'9 9.4
2015-May-01 14:33N 29°46' W 095°05'5 5.5
2015-May-01 13:33N 29°45' W 095°11'5 4.4
2015-May-01 12:30N 29°44' W 095°16'0 0.0
2015-May-01 11:33N 29°44' W 095°16'0 0.0
2015-May-01 10:33N 29°44' W 095°16'0 0.0
2015-May-01 09:33N 29°44' W 095°16'0 0.0
2015-May-01 08:33N 29°44' W 095°16'0 0.0
2015-May-01 07:33N 29°44' W 095°16'0 0.0
2015-May-01 06:33N 29°44' W 095°16'0 0.0
2015-May-01 05:33N 29°44' W 095°16'0 0.0
2015-May-01 04:33N 29°44' W 095°16'0 0.0
2015-May-01 03:33N 29°44' W 095°16'0 0.0
2015-May-01 02:21N 29°44' W 095°16'0 0.0
2015-May-01 01:33N 29°44' W 095°16'0 0.0
2015-May-01 00:33N 29°44' W 095°16'0 0.0
2015-Apr-30 23:27N 29°44' W 095°16'0 0.0
2015-Apr-30 22:33N 29°44' W 095°16'0 0.0
2015-Apr-30 21:30N 29°44' W 095°16'0 0.0
2015-Apr-30 20:33N 29°44' W 095°16'0 0.0
2015-Apr-30 19:33N 29°44' W 095°16'0 0.0
2015-Apr-30 18:33N 29°44' W 095°16'0 0.0
2015-Apr-30 17:33N 29°44' W 095°16'0 0.0
2015-Apr-30 16:33N 29°44' W 095°16'0 0.0
2015-Apr-30 15:33N 29°44' W 095°16'0 0.0
2015-Apr-30 14:33N 29°44' W 095°16'0 0.0
2015-Apr-30 13:33N 29°44' W 095°16'0 0.0
2015-Apr-30 12:33N 29°44' W 095°16'0 0.0
2015-Apr-30 11:33N 29°44' W 095°16'0 0.0
2015-Apr-30 10:33N 29°44' W 095°16'0 0.0
2015-Apr-30 09:30N 29°44' W 095°16'0 0.0
2015-Apr-30 08:33N 29°44' W 095°16'0 0.0
2015-Apr-30 07:33N 29°44' W 095°16'0 0.0
2015-Apr-30 06:33N 29°44' W 095°16'0 0.0
2015-Apr-30 05:33N 29°44' W 095°16'0 0.0
2015-Apr-30 04:33N 29°44' W 095°16'0 0.0
2015-Apr-30 03:33N 29°44' W 095°16'0 0.0
2015-Apr-30 02:33N 29°44' W 095°16'0 0.0
2015-Apr-30 01:33N 29°44' W 095°16'0 0.0
2015-Apr-30 00:33N 29°44' W 095°16'0 0.0
2015-Apr-29 23:33N 29°44' W 095°16'0 0.0
2015-Apr-29 22:33N 29°44' W 095°16'0 0.0
2015-Apr-29 21:33N 29°44' W 095°16'0 0.0
2015-Apr-29 20:33N 29°44' W 095°16'0 0.0
2015-Apr-29 19:33N 29°44' W 095°16'0 0.0
2015-Apr-29 18:33N 29°44' W 095°16'0 0.0
2015-Apr-29 17:33N 29°44' W 095°16'0 0.0
2015-Apr-29 16:33N 29°44' W 095°16'0 0.0
2015-Apr-29 15:30N 29°44' W 095°16'0 0.0
2015-Apr-29 14:33N 29°44' W 095°16'0 0.0
2015-Apr-29 13:33N 29°44' W 095°16'0 0.0
2015-Apr-29 12:33N 29°44' W 095°16'0 0.0
2015-Apr-29 11:33N 29°44' W 095°16'0 0.0
2015-Apr-29 10:33N 29°44' W 095°16'0 0.0
2015-Apr-29 09:33N 29°44' W 095°16'0 0.0
2015-Apr-29 08:30N 29°44' W 095°16'0 0.0
2015-Apr-29 07:33N 29°44' W 095°16'0 0.0
2015-Apr-29 06:33N 29°44' W 095°16'0 0.0
2015-Apr-29 05:33N 29°44' W 095°16'0 0.0
2015-Apr-29 04:33N 29°44' W 095°16'0 0.0
2015-Apr-29 03:33N 29°44' W 095°16'0 0.0
2015-Apr-29 02:33N 29°44' W 095°16'0 0.0
2015-Apr-29 01:33N 29°44' W 095°16'0 0.0
2015-Apr-29 00:30N 29°44' W 095°16'0 0.2
2015-Apr-28 23:33N 29°43' W 095°16'6 6.2
2015-Apr-28 22:34N 29°44' W 095°09'7 7.1
2015-Apr-28 21:33N 29°42' W 095°01'1211.7
2015-Apr-28 20:34N 29°33' W 094°54'1312.7
2015-Apr-28 19:33N 29°21' W 094°47'11 0.4
2015-Apr-27 15:26N 29°19' W 094°35'0 0.0
2015-Apr-27 03:20N 29°19' W 094°35'0 0.0
2015-Apr-27 02:23N 29°19' W 094°35'0 0.0
2015-Apr-26 17:23N 29°19' W 094°35'0 0.0
2015-Apr-26 15:08N 29°19' W 094°35'0 0.0
2015-Apr-26 14:23N 29°19' W 094°35'0 0.0
2015-Apr-26 13:32N 29°19' W 094°34'0 0.0
2015-Apr-26 10:17N 29°19' W 094°34'0 0.0
2015-Apr-26 09:23N 29°19' W 094°34'0 0.0
2015-Apr-26 08:29N 29°19' W 094°34'0 0.0
2015-Apr-25 10:20N 29°19' W 094°34'0 0.0
2015-Apr-25 09:32N 29°19' W 094°34'0 0.0
2015-Apr-24 06:33N 29°19' W 094°34'0 0.0
2015-Apr-24 05:33N 29°19' W 094°35'0 0.0
2015-Apr-24 03:33N 29°19' W 094°35'0 0.0
2015-Apr-24 02:15N 29°19' W 094°34'0 0.0
2015-Apr-23 13:30N 29°19' W 094°35'8 0.5
2015-Apr-22 23:20N 29°21' W 094°43'5 0.5
2015-Apr-22 13:19N 29°18' W 094°48'  

Dump ship's entire track history